sensor_id;sensor_type;location;lat;lon;timestamp;pressure;altitude;pressure_sealevel;temperature;humidity
5679;BME280;2862;52.560;13.566;2023-03-01T00:08:44;102252.47;;;0.58;68.96
5679;BME280;2862;52.560;13.566;2023-03-01T00:18:48;102242.72;;;0.63;68.94
5679;BME280;2862;52.560;13.566;2023-03-01T00:28:52;102237.66;;;0.50;69.76
5679;BME280;2862;52.560;13.566;2023-03-01T00:38:58;102246.69;;;0.37;69.84
5679;BME280;2862;52.560;13.566;2023-03-01T00:49:00;102240.31;;;-0.04;72.71
5679;BME280;2862;52.560;13.566;2023-03-01T00:59:05;102228.84;;;-0.01;72.95
5679;BME280;2862;52.560;13.566;2023-03-01T01:09:10;102221.03;;;-0.04;72.71
5679;BME280;2862;52.560;13.566;2023-03-01T01:19:20;102211.56;;;-0.16;72.89
5679;BME280;2862;52.560;13.566;2023-03-01T01:29:23;102193.81;;;-0.02;71.71
5679;BME280;2862;52.560;13.566;2023-03-01T01:39:28;102179.94;;;-0.10;72.06
5679;BME280;2862;52.560;13.566;2023-03-01T01:49:35;102173.75;;;-0.06;72.15
5679;BME280;2862;52.560;13.566;2023-03-01T01:59:44;102178.31;;;-0.17;73.17
5679;BME280;2862;52.560;13.566;2023-03-01T02:09:50;102185.25;;;-0.14;72.34
5679;BME280;2862;52.560;13.566;2023-03-01T02:20:06;102197.75;;;-0.29;74.53
5679;BME280;2862;52.560;13.566;2023-03-01T02:30:17;102194.50;;;-0.47;75.65
5679;BME280;2862;52.560;13.566;2023-03-01T02:40:21;102195.59;;;-0.62;75.86
5679;BME280;2862;52.560;13.566;2023-03-01T02:50:44;102178.84;;;-0.55;75.17
5679;BME280;2862;52.560;13.566;2023-03-01T03:00:51;102177.19;;;-0.64;75.52
5679;BME280;2862;52.560;13.566;2023-03-01T03:10:55;102170.13;;;-0.59;74.53
5679;BME280;2862;52.560;13.566;2023-03-01T03:20:58;102162.41;;;-0.69;75.56
5679;BME280;2862;52.560;13.566;2023-03-01T03:31:05;102160.00;;;-0.85;75.46
5679;BME280;2862;52.560;13.566;2023-03-01T03:41:09;102145.28;;;-0.96;76.43
5679;BME280;2862;52.560;13.566;2023-03-01T03:51:15;102138.28;;;-0.97;75.91
5679;BME280;2862;52.560;13.566;2023-03-01T04:01:19;102134.84;;;-1.02;75.59
5679;BME280;2862;52.560;13.566;2023-03-01T04:11:23;102132.41;;;-1.21;76.34
5679;BME280;2862;52.560;13.566;2023-03-01T04:21:29;102136.13;;;-1.39;77.38
5679;BME280;2862;52.560;13.566;2023-03-01T04:31:33;102129.25;;;-1.47;78.71
5679;BME280;2862;52.560;13.566;2023-03-01T04:41:37;102124.03;;;-1.52;78.80
5679;BME280;2862;52.560;13.566;2023-03-01T04:51:42;102134.56;;;-1.55;79.05
5679;BME280;2862;52.560;13.566;2023-03-01T05:01:46;102127.50;;;-1.47;79.21
5679;BME280;2862;52.560;13.566;2023-03-01T05:11:50;102124.13;;;-1.61;78.61
5679;BME280;2862;52.560;13.566;2023-03-01T05:21:53;102123.41;;;-1.75;79.21
5679;BME280;2862;52.560;13.566;2023-03-01T05:32:08;102114.75;;;-1.82;79.83
5679;BME280;2862;52.560;13.566;2023-03-01T05:42:16;102106.75;;;-1.70;80.83
5679;BME280;2862;52.560;13.566;2023-03-01T05:52:21;102104.13;;;-1.70;81.28
5679;BME280;2862;52.560;13.566;2023-03-01T06:02:24;102107.22;;;-1.31;80.47
5679;BME280;2862;52.560;13.566;2023-03-01T06:12:31;102111.81;;;-0.82;78.74
5679;BME280;2862;52.560;13.566;2023-03-01T06:22:34;102100.81;;;1.73;68.71
5679;BME280;2862;52.560;13.566;2023-03-01T06:32:38;102107.66;;;3.37;60.63
5679;BME280;2862;52.560;13.566;2023-03-01T06:42:48;102118.31;;;4.16;57.14
5679;BME280;2862;52.560;13.566;2023-03-01T06:52:56;102109.59;;;5.33;52.98
5679;BME280;2862;52.560;13.566;2023-03-01T07:03:00;102119.88;;;5.19;54.74
5679;BME280;2862;52.560;13.566;2023-03-01T07:13:05;102114.91;;;6.80;51.28
5679;BME280;2862;52.560;13.566;2023-03-01T07:23:09;102116.91;;;8.23;47.09
5679;BME280;2862;52.560;13.566;2023-03-01T07:33:14;102113.00;;;8.47;46.01
5679;BME280;2862;52.560;13.566;2023-03-01T07:43:16;102118.53;;;8.08;51.87
5679;BME280;2862;52.560;13.566;2023-03-01T07:53:21;102107.81;;;8.95;48.04
5679;BME280;2862;52.560;13.566;2023-03-01T08:03:23;102109.00;;;9.05;47.11
5679;BME280;2862;52.560;13.566;2023-03-01T08:13:29;102108.13;;;8.89;45.88
5679;BME280;2862;52.560;13.566;2023-03-01T08:23:33;102099.38;;;9.02;44.46
5679;BME280;2862;52.560;13.566;2023-03-01T08:33:37;102086.00;;;7.84;44.50
5679;BME280;2862;52.560;13.566;2023-03-01T08:43:40;102086.25;;;8.66;43.45
5679;BME280;2862;52.560;13.566;2023-03-01T08:53:44;102078.53;;;8.77;43.13
5679;BME280;2862;52.560;13.566;2023-03-01T09:03:47;102074.59;;;9.16;42.64
5679;BME280;2862;52.560;13.566;2023-03-01T09:13:52;102071.41;;;9.10;42.99
5679;BME280;2862;52.560;13.566;2023-03-01T09:23:56;102067.78;;;8.11;44.13
5679;BME280;2862;52.560;13.566;2023-03-01T09:34:01;102069.09;;;7.85;45.07
5679;BME280;2862;52.560;13.566;2023-03-01T09:44:10;102076.06;;;7.88;46.08
5679;BME280;2862;52.560;13.566;2023-03-01T09:54:17;102067.59;;;7.80;45.14
5679;BME280;2862;52.560;13.566;2023-03-01T10:04:28;102066.47;;;7.66;44.47
5679;BME280;2862;52.560;13.566;2023-03-01T10:14:39;102070.19;;;7.64;44.61
5679;BME280;2862;52.560;13.566;2023-03-01T10:24:45;102072.00;;;7.81;44.60
5679;BME280;2862;52.560;13.566;2023-03-01T10:34:50;102067.63;;;8.32;44.92
5679;BME280;2862;52.560;13.566;2023-03-01T10:44:53;102044.72;;;8.28;45.09
5679;BME280;2862;52.560;13.566;2023-03-01T10:54:59;102032.94;;;8.98;43.34
5679;BME280;2862;52.560;13.566;2023-03-01T11:05:18;102021.56;;;8.94;40.96
5679;BME280;2862;52.560;13.566;2023-03-01T11:15:25;102004.16;;;8.56;40.79
5679;BME280;2862;52.560;13.566;2023-03-01T11:25:32;102004.66;;;8.29;40.61
5679;BME280;2862;52.560;13.566;2023-03-01T11:35:41;101998.41;;;8.63;38.79
5679;BME280;2862;52.560;13.566;2023-03-01T11:56:29;101997.03;;;8.06;41.05
5679;BME280;2862;52.560;13.566;2023-03-01T12:06:48;101983.34;;;7.79;40.23
5679;BME280;2862;52.560;13.566;2023-03-01T12:17:20;101980.34;;;7.50;39.90
5679;BME280;2862;52.560;13.566;2023-03-01T12:27:47;101956.25;;;7.53;38.45
5679;BME280;2862;52.560;13.566;2023-03-01T12:38:06;101945.81;;;7.31;37.67
5679;BME280;2862;52.560;13.566;2023-03-01T12:48:27;101931.44;;;7.70;38.07
5679;BME280;2862;52.560;13.566;2023-03-01T12:58:39;101922.41;;;7.72;38.24
5679;BME280;2862;52.560;13.566;2023-03-01T13:08:56;101920.63;;;7.73;38.74
5679;BME280;2862;52.560;13.566;2023-03-01T13:19:13;101906.84;;;7.65;38.77
5679;BME280;2862;52.560;13.566;2023-03-01T13:29:26;101913.13;;;7.29;38.53
5679;BME280;2862;52.560;13.566;2023-03-01T13:39:39;101898.88;;;7.65;39.02
5679;BME280;2862;52.560;13.566;2023-03-01T13:49:44;101887.47;;;7.63;39.08
5679;BME280;2862;52.560;13.566;2023-03-01T13:59:50;101873.22;;;7.80;38.67
5679;BME280;2862;52.560;13.566;2023-03-01T14:09:55;101867.59;;;7.86;38.09
5679;BME280;2862;52.560;13.566;2023-03-01T14:20:02;101860.38;;;7.88;37.70
5679;BME280;2862;52.560;13.566;2023-03-01T14:30:12;101848.81;;;7.71;38.16
5679;BME280;2862;52.560;13.566;2023-03-01T14:40:25;101836.16;;;7.92;38.15
5679;BME280;2862;52.560;13.566;2023-03-01T14:50:30;101828.53;;;7.86;38.57
5679;BME280;2862;52.560;13.566;2023-03-01T15:00:35;101815.06;;;7.72;40.12
5679;BME280;2862;52.560;13.566;2023-03-01T15:10:38;101816.44;;;7.63;41.28
5679;BME280;2862;52.560;13.566;2023-03-01T15:20:46;101824.44;;;7.63;42.01
5679;BME280;2862;52.560;13.566;2023-03-01T15:30:53;101819.72;;;7.68;43.24
5679;BME280;2862;52.560;13.566;2023-03-01T15:41:00;101813.59;;;7.66;44.06
5679;BME280;2862;52.560;13.566;2023-03-01T15:51:04;101810.19;;;7.64;44.57
5679;BME280;2862;52.560;13.566;2023-03-01T16:01:10;101799.91;;;7.41;45.59
5679;BME280;2862;52.560;13.566;2023-03-01T16:11:17;101783.69;;;7.28;46.17
5679;BME280;2862;52.560;13.566;2023-03-01T16:21:27;101783.16;;;7.22;46.52
5679;BME280;2862;52.560;13.566;2023-03-01T16:31:31;101779.50;;;7.07;47.05
5679;BME280;2862;52.560;13.566;2023-03-01T16:41:39;101774.66;;;6.98;47.50
5679;BME280;2862;52.560;13.566;2023-03-01T16:51:42;101792.81;;;6.72;48.70
5679;BME280;2862;52.560;13.566;2023-03-01T17:01:47;101789.97;;;6.58;49.29
5679;BME280;2862;52.560;13.566;2023-03-01T17:11:49;101805.44;;;6.50;49.64
5679;BME280;2862;52.560;13.566;2023-03-01T17:21:54;101801.97;;;6.48;49.86
5679;BME280;2862;52.560;13.566;2023-03-01T17:31:57;101800.75;;;6.36;50.47
5679;BME280;2862;52.560;13.566;2023-03-01T17:42:02;101797.94;;;6.22;51.18
5679;BME280;2862;52.560;13.566;2023-03-01T17:52:07;101804.22;;;6.19;51.49
5679;BME280;2862;52.560;13.566;2023-03-01T18:02:12;101814.88;;;6.00;52.27
5679;BME280;2862;52.560;13.566;2023-03-01T18:12:24;101812.09;;;5.83;53.41
5679;BME280;2862;52.560;13.566;2023-03-01T18:22:28;101804.78;;;5.88;53.17
5679;BME280;2862;52.560;13.566;2023-03-01T18:32:31;101798.19;;;5.78;53.63
5679;BME280;2862;52.560;13.566;2023-03-01T18:42:35;101808.28;;;5.70;54.22
5679;BME280;2862;52.560;13.566;2023-03-01T18:52:38;101808.19;;;5.52;54.67
5679;BME280;2862;52.560;13.566;2023-03-01T19:02:43;101812.06;;;5.45;55.17
5679;BME280;2862;52.560;13.566;2023-03-01T19:12:49;101810.66;;;5.37;55.64
5679;BME280;2862;52.560;13.566;2023-03-01T19:22:53;101811.00;;;5.09;57.01
5679;BME280;2862;52.560;13.566;2023-03-01T19:32:56;101818.00;;;4.89;57.99
5679;BME280;2862;52.560;13.566;2023-03-01T19:43:01;101829.56;;;4.66;59.33
5679;BME280;2862;52.560;13.566;2023-03-01T19:53:04;101823.94;;;4.52;59.75
5679;BME280;2862;52.560;13.566;2023-03-01T20:03:11;101825.44;;;4.37;60.86
5679;BME280;2862;52.560;13.566;2023-03-01T20:13:15;101830.25;;;4.04;61.87
5679;BME280;2862;52.560;13.566;2023-03-01T20:23:24;101825.84;;;4.05;62.53
5679;BME280;2862;52.560;13.566;2023-03-01T20:33:27;101826.81;;;4.02;63.21
5679;BME280;2862;52.560;13.566;2023-03-01T20:43:32;101828.53;;;4.03;62.77
5679;BME280;2862;52.560;13.566;2023-03-01T20:53:35;101822.56;;;3.98;62.37
5679;BME280;2862;52.560;13.566;2023-03-01T21:03:39;101821.56;;;3.77;63.38
5679;BME280;2862;52.560;13.566;2023-03-01T21:13:45;101814.25;;;3.60;65.28
5679;BME280;2862;52.560;13.566;2023-03-01T21:23:49;101817.84;;;3.59;65.04
5679;BME280;2862;52.560;13.566;2023-03-01T21:33:53;101819.06;;;3.51;65.67
5679;BME280;2862;52.560;13.566;2023-03-01T21:43:59;101814.53;;;3.29;66.18
5679;BME280;2862;52.560;13.566;2023-03-01T21:54:03;101809.81;;;3.12;66.79
5679;BME280;2862;52.560;13.566;2023-03-01T22:04:07;101809.91;;;3.09;67.32
5679;BME280;2862;52.560;13.566;2023-03-01T22:14:11;101804.91;;;3.02;66.98
5679;BME280;2862;52.560;13.566;2023-03-01T22:24:17;101806.03;;;2.70;68.60
5679;BME280;2862;52.560;13.566;2023-03-01T22:34:21;101807.31;;;2.56;69.32
5679;BME280;2862;52.560;13.566;2023-03-01T22:44:25;101790.13;;;2.71;68.50
5679;BME280;2862;52.560;13.566;2023-03-01T22:54:28;101799.31;;;2.59;69.70
5679;BME280;2862;52.560;13.566;2023-03-01T23:04:32;101796.47;;;2.65;68.76
5679;BME280;2862;52.560;13.566;2023-03-01T23:14:35;101787.56;;;2.68;69.60
5679;BME280;2862;52.560;13.566;2023-03-01T23:24:39;101780.25;;;2.50;70.93
5679;BME280;2862;52.560;13.566;2023-03-01T23:34:42;101763.34;;;2.29;72.03
5679;BME280;2862;52.560;13.566;2023-03-01T23:44:47;101762.53;;;2.27;71.88
5679;BME280;2862;52.560;13.566;2023-03-01T23:54:50;101758.75;;;2.07;72.76
